Terminal Aerodrome Forecast
Issued by NWS Cleveland, OH

Home | Current Version | Previous Version | Graphics & Text | Print | Product List | Glossary On
Versions: 1 2 3 4 5 6 7 8 9 10 11 12 13 14 15 16 17 18 19 20 21 22 23 24 25
000
FTUS41 KCLE 152320
TAFCLE
TAF
KCLE 152320Z 1600/1706 01005KT P6SM FEW200
     FM170200 07006KT P6SM SCT250
     FM170400 10006KT P6SM SCT200
     FM170500 11006KT P6SM BKN140=

USA.gov is the U.S. government's official web portal to all federal, state and local government web resources and services.